Time;durP1;ratioP1;P1;durP2;ratioP2;P2;SDS_P1;SDS_P2;PMS_P1;PMS_P2;Temp;Humidity;BMP_temperature;BMP_pressure;BME280_temperature;BME280_humidity;BME280_pressure;Samples;Min_cycle;Max_cycle;Signal;HPM_P1;HPM_P2
2021/09/04 00:02:18;;;;;;;9.08;4.50;;;;;;;12.70;100.00;98834.89;1667779;85;21518;-70
2021/09/04 00:04:46;;;;;;;7.80;4.72;;;;;;;12.69;100.00;98829.63;1645432;86;20944;-69
2021/09/04 00:07:13;;;;;;;9.68;4.40;;;;;;;12.69;100.00;98840.20;1658106;85;20993;-69
2021/09/04 00:09:42;;;;;;;8.10;4.67;;;;;;;12.67;100.00;98830.98;1661195;85;20972;-69
2021/09/04 00:12:12;;;;;;;7.00;4.45;;;;;;;12.64;100.00;98829.72;1632478;86;21953;-69
2021/09/04 00:14:42;;;;;;;10.50;4.95;;;;;;;12.59;100.00;98832.90;1653521;85;21431;-69
2021/09/04 00:17:11;;;;;;;5.83;4.33;;;;;;;12.59;100.00;98832.45;1651895;86;21021;-70
2021/09/04 00:19:38;;;;;;;7.62;4.47;;;;;;;12.59;100.00;98835.55;1672679;85;20943;-70
2021/09/04 00:22:06;;;;;;;5.05;4.20;;;;;;;12.56;100.00;98829.86;1672259;85;20936;-70
2021/09/04 00:24:34;;;;;;;6.37;4.70;;;;;;;12.53;100.00;98824.63;1672613;85;21419;-69
2021/09/04 00:27:01;;;;;;;9.23;5.30;;;;;;;12.50;100.00;98822.05;1658589;85;21443;-70
2021/09/04 00:29:30;;;;;;;7.62;4.78;;;;;;;12.49;100.00;98820.30;1656651;85;21466;-70
2021/09/04 00:31:57;;;;;;;8.85;4.08;;;;;;;12.51;100.00;98824.23;1658428;85;20888;-70
2021/09/04 00:34:25;;;;;;;8.28;4.78;;;;;;;12.54;100.00;98821.53;1658682;85;20939;-70
2021/09/04 00:36:53;;;;;;;8.28;4.08;;;;;;;12.54;100.00;98818.89;1658443;85;21120;-70
2021/09/04 00:39:21;;;;;;;8.85;4.62;;;;;;;12.53;100.00;98824.63;1656677;85;20912;-69
2021/09/04 00:41:49;;;;;;;8.30;4.85;;;;;;;12.50;100.00;98825.14;1657993;85;21467;-69
2021/09/04 00:44:19;;;;;;;8.23;4.78;;;;;;;12.46;100.00;98828.30;1658605;85;21023;-69
2021/09/04 00:46:47;;;;;;;6.60;4.40;;;;;;;12.44;100.00;98826.58;1650720;85;21040;-69
2021/09/04 00:49:15;;;;;;;6.78;4.50;;;;;;;12.42;100.00;98821.32;1639389;85;21057;-70
2021/09/04 00:51:43;;;;;;;5.35;4.10;;;;;;;12.40;100.00;98813.86;1622341;87;20901;-70
2021/09/04 00:54:11;;;;;;;6.15;4.20;;;;;;;12.38;100.00;98815.66;1611191;88;21026;-70
2021/09/04 00:56:39;;;;;;;6.75;4.62;;;;;;;12.35;100.00;98815.72;1623159;88;21003;-70
2021/09/04 00:59:09;;;;;;;7.47;4.47;;;;;;;12.35;100.00;98810.88;1628534;87;21476;-70
2021/09/04 01:01:38;;;;;;;8.43;4.42;;;;;;;12.34;100.00;98809.14;1630672;87;21924;-69
2021/09/04 01:04:07;;;;;;;6.47;4.20;;;;;;;12.36;100.00;98806.02;1624258;87;20900;-71
2021/09/04 01:06:35;;;;;;;7.58;4.55;;;;;;;12.36;100.00;98805.56;1627356;86;21020;-70
2021/09/04 01:09:03;;;;;;;8.40;4.87;;;;;;;12.37;100.00;98801.15;1661553;85;21468;-70
2021/09/04 01:11:34;;;;;;;7.90;4.65;;;;;;;12.36;100.00;98808.66;1649636;86;20929;-70
2021/09/04 01:14:03;;;;;;;6.28;4.40;;;;;;;12.34;100.00;98798.56;1672256;85;21063;-70
2021/09/04 01:16:38;;;;;;;7.10;4.25;;;;;;;12.33;100.00;98796.36;1672582;85;21479;-69
2021/09/04 01:19:07;;;;;;;7.92;5.12;;;;;;;12.32;100.00;98793.30;1672431;85;20968;-70
2021/09/04 01:21:35;;;;;;;7.95;4.83;;;;;;;12.30;100.00;98792.45;1672471;85;21450;-70
2021/09/04 01:24:06;;;;;;;6.72;4.67;;;;;;;12.29;100.00;98790.68;1682807;84;21451;-70
2021/09/04 01:26:34;;;;;;;8.68;4.70;;;;;;;12.27;100.00;98793.80;1683511;85;21100;-69
2021/09/04 01:29:03;;;;;;;7.67;5.05;;;;;;;12.26;100.00;98794.70;1676536;85;21384;-70
2021/09/04 01:31:31;;;;;;;8.48;4.60;;;;;;;12.24;100.00;98793.41;1672799;85;21443;-70
2021/09/04 01:34:02;;;;;;;7.05;4.75;;;;;;;12.25;100.00;98789.87;1672497;85;21494;-70
2021/09/04 01:36:36;;;;;;;7.85;5.00;;;;;;;12.25;100.00;98789.87;1672767;85;20924;-68
2021/09/04 01:39:05;;;;;;;9.85;4.85;;;;;;;12.23;100.00;98789.47;1675738;85;21095;-68
2021/09/04 01:41:33;;;;;;;7.08;4.78;;;;;;;12.23;100.00;98783.73;1681293;85;21413;-69
2021/09/04 01:44:02;;;;;;;7.70;4.90;;;;;;;12.23;100.00;98788.15;1683211;85;21464;-69
2021/09/04 01:46:33;;;;;;;9.08;5.15;;;;;;;12.23;100.00;98779.77;1683410;84;21488;-70
2021/09/04 01:49:02;;;;;;;8.43;5.12;;;;;;;12.25;100.00;98783.70;1677857;84;20975;-70
2021/09/04 01:51:30;;;;;;;8.28;5.25;;;;;;;12.26;100.00;98781.03;1657007;85;21104;-69
2021/09/04 01:53:58;;;;;;;8.15;5.30;;;;;;;12.24;100.00;98789.89;1656943;85;21597;-69
2021/09/04 01:56:25;;;;;;;10.03;5.12;;;;;;;12.22;100.00;98787.73;1657012;86;21431;-69
2021/09/04 01:58:54;;;;;;;7.90;5.00;;;;;;;12.19;100.00;98786.47;1640758;86;21432;-69
2021/09/04 02:01:23;;;;;;;8.43;5.28;;;;;;;12.16;100.00;98783.42;1608068;89;21463;-69
2021/09/04 02:03:52;;;;;;;7.80;4.65;;;;;;;12.19;100.00;98791.75;1617834;87;21948;-70
2021/09/04 02:06:20;;;;;;;8.35;5.00;;;;;;;12.22;100.00;98789.92;1663002;84;20900;-69
2021/09/04 02:08:49;;;;;;;9.75;5.22;;;;;;;12.24;100.00;98788.57;1630847;87;21459;-69
2021/09/04 02:11:17;;;;;;;7.35;4.97;;;;;;;12.24;100.00;98785.48;1632984;85;21519;-70
2021/09/04 02:13:47;;;;;;;7.85;5.15;;;;;;;12.24;100.00;98784.16;1648327;86;21387;-70
2021/09/04 02:16:15;;;;;;;7.87;5.28;;;;;;;12.28;100.00;98783.64;1650232;84;21506;-70
2021/09/04 02:18:44;;;;;;;11.15;5.47;;;;;;;12.33;100.00;98780.95;1651219;85;21499;-70
2021/09/04 02:21:14;;;;;;;7.70;5.50;;;;;;;12.37;100.00;98779.98;1646059;86;21514;-70
2021/09/04 02:23:46;;;;;;;9.28;5.78;;;;;;;12.40;100.00;98784.77;1647831;86;20908;-70
2021/09/04 02:26:14;;;;;;;11.55;5.67;;;;;;;12.45;100.00;98789.97;1654176;85;20965;-70
2021/09/04 02:28:44;;;;;;;12.20;5.78;;;;;;;12.51;100.00;98783.23;1656996;86;21122;-70
2021/09/04 02:31:15;;;;;;;13.10;7.12;;;;;;;12.55;100.00;98784.91;1657094;86;21573;-69
2021/09/04 02:33:43;;;;;;;12.53;7.12;;;;;;;12.58;100.00;98779.56;1657069;85;21000;-70
2021/09/04 02:36:13;;;;;;;12.98;6.78;;;;;;;12.60;100.00;98784.38;1641646;86;21443;-70
2021/09/04 02:38:41;;;;;;;15.63;7.65;;;;;;;12.63;100.00;98786.09;1641606;86;21424;-70
2021/09/04 02:41:10;;;;;;;17.15;7.80;;;;;;;12.67;100.00;98789.95;1641734;85;21931;-70
2021/09/04 02:43:40;;;;;;;17.17;7.90;;;;;;;12.71;100.00;98780.19;1657085;86;21443;-69
2021/09/04 02:46:09;;;;;;;13.50;7.20;;;;;;;12.70;100.00;98774.47;1646986;86;21017;-69
2021/09/04 02:48:37;;;;;;;13.28;6.75;;;;;;;12.69;100.00;98778.02;1606418;89;20973;-69
2021/09/04 02:51:07;;;;;;;10.68;6.22;;;;;;;12.67;100.00;98772.76;1691138;84;21498;-69
2021/09/04 02:53:34;;;;;;;10.80;6.03;;;;;;;12.71;100.00;98774.44;1692281;84;21027;-69
2021/09/04 02:56:03;;;;;;;8.60;5.72;;;;;;;12.74;100.00;98777.02;1696904;84;20867;-69
2021/09/04 02:58:34;;;;;;;12.20;5.53;;;;;;;12.74;100.00;98782.77;1666756;86;20907;-69
2021/09/04 03:01:02;;;;;;;12.68;6.17;;;;;;;12.72;100.00;98785.89;1658803;86;20977;-69
2021/09/04 03:03:30;;;;;;;9.73;5.67;;;;;;;12.73;100.00;98779.70;1666230;85;21037;-69
2021/09/04 03:06:01;;;;;;;10.15;5.53;;;;;;;12.75;100.00;98788.03;1672833;85;21820;-69
2021/09/04 03:08:30;;;;;;;10.38;6.15;;;;;;;12.75;100.00;98785.83;1672407;85;21451;-68
2021/09/04 03:11:02;;;;;;;10.13;6.28;;;;;;;12.74;100.00;98785.41;1672429;85;21463;-69
2021/09/04 03:13:32;;;;;;;11.33;5.40;;;;;;;12.74;100.00;98783.64;1674725;85;21452;-69
2021/09/04 03:16:00;;;;;;;10.23;5.85;;;;;;;12.70;100.00;98793.87;1672219;85;20972;-69
2021/09/04 03:18:29;;;;;;;11.68;5.65;;;;;;;12.70;100.00;98797.84;1672251;85;21925;-69
2021/09/04 03:20:58;;;;;;;11.10;5.83;;;;;;;12.69;100.00;98797.41;1659527;85;20877;-68
2021/09/04 03:23:26;;;;;;;10.32;6.15;;;;;;;12.68;100.00;98802.29;1629326;86;20943;-69
2021/09/04 03:25:54;;;;;;;9.30;6.10;;;;;;;12.65;100.00;98800.16;1662575;85;21007;-70
2021/09/04 03:28:23;;;;;;;8.50;5.42;;;;;;;12.69;100.00;98809.77;1664293;85;20884;-70
2021/09/04 03:30:52;;;;;;;11.33;6.17;;;;;;;12.69;100.00;98804.48;1627388;88;21131;-70
2021/09/04 03:33:21;;;;;;;8.63;6.45;;;;;;;12.68;100.00;98807.58;1653252;85;20932;-68
2021/09/04 03:35:51;;;;;;;17.62;6.95;;;;;;;12.67;100.00;98805.84;1632619;88;21003;-69
2021/09/04 03:38:19;;;;;;;8.75;6.03;;;;;;;12.64;100.00;98807.22;1674522;85;21031;-65
2021/09/04 03:40:47;;;;;;;10.85;6.08;;;;;;;12.64;100.00;98809.87;1673039;85;20852;-64
2021/09/04 03:43:16;;;;;;;11.28;6.12;;;;;;;12.68;100.00;98809.36;1657740;86;21442;-63
2021/09/04 03:45:44;;;;;;;12.80;6.70;;;;;;;12.70;100.00;98808.42;1650850;85;21455;-64
2021/09/04 03:48:13;;;;;;;11.60;6.78;;;;;;;12.69;100.00;98812.42;1663436;85;20923;-63
2021/09/04 03:50:43;;;;;;;10.18;6.22;;;;;;;12.68;100.00;98808.03;1661392;85;21509;-63
2021/09/04 03:53:13;;;;;;;12.85;6.45;;;;;;;12.66;100.00;98809.39;1682365;84;21534;-64
2021/09/04 03:55:43;;;;;;;12.90;7.00;;;;;;;12.70;100.00;98807.55;1680381;85;21438;-64
2021/09/04 03:58:12;;;;;;;11.78;7.20;;;;;;;12.71;100.00;98810.16;1644001;86;20991;-64
2021/09/04 04:00:42;;;;;;;12.80;7.05;;;;;;;12.72;100.00;98812.36;1677400;85;21550;-64
2021/09/04 04:03:10;;;;;;;9.83;5.95;;;;;;;12.73;100.00;98820.72;1677188;85;21026;-63
2021/09/04 04:05:39;;;;;;;9.13;5.95;;;;;;;12.75;100.00;98819.78;1661802;85;21022;-64
2021/09/04 04:08:08;;;;;;;9.05;6.42;;;;;;;12.80;100.00;98827.67;1671628;85;21116;-65
2021/09/04 04:10:35;;;;;;;11.85;6.72;;;;;;;12.79;100.00;98829.89;1672761;84;20891;-65
2021/09/04 04:13:03;;;;;;;10.88;6.42;;;;;;;12.78;100.00;98831.67;1660395;85;20898;-65
2021/09/04 04:15:31;;;;;;;11.70;6.60;;;;;;;12.79;100.00;98837.84;1660579;84;20903;-65
2021/09/04 04:18:00;;;;;;;10.15;6.50;;;;;;;12.80;100.00;98834.28;1660375;85;20959;-64
2021/09/04 04:20:29;;;;;;;11.55;6.33;;;;;;;12.84;100.00;98839.94;1660554;85;21406;-64
2021/09/04 04:22:59;;;;;;;12.65;7.10;;;;;;;12.85;100.00;98838.58;1660295;86;20914;-64
2021/09/04 04:25:27;;;;;;;12.63;8.00;;;;;;;12.85;100.00;98835.06;1660603;85;20879;-64
2021/09/04 04:27:56;;;;;;;9.95;6.65;;;;;;;12.84;100.00;98841.26;1660382;86;20879;-64
2021/09/04 04:30:25;;;;;;;7.55;6.10;;;;;;;12.86;100.00;98845.62;1660364;85;20927;-63
2021/09/04 04:32:54;;;;;;;15.65;7.33;;;;;;;12.92;100.00;98852.56;1660330;85;21114;-65
2021/09/04 04:35:24;;;;;;;10.10;6.30;;;;;;;12.99;100.00;98854.63;1660317;85;20943;-64
2021/09/04 04:37:53;;;;;;;9.85;6.75;;;;;;;13.01;100.00;98853.70;1660452;85;21447;-64
2021/09/04 04:40:22;;;;;;;8.65;6.28;;;;;;;13.04;100.00;98856.73;1663294;85;21016;-65
2021/09/04 04:42:51;;;;;;;9.98;6.65;;;;;;;13.06;100.00;98864.19;1677092;85;20900;-65
2021/09/04 04:45:20;;;;;;;9.18;6.10;;;;;;;13.12;100.00;98859.64;1677363;85;23101;-65
2021/09/04 04:47:48;;;;;;;10.28;5.90;;;;;;;13.15;100.00;98855.60;1676987;85;20868;-64
2021/09/04 04:50:19;;;;;;;10.58;6.53;;;;;;;13.16;100.00;98856.02;1674670;85;20916;-64
2021/09/04 04:52:47;;;;;;;11.63;6.53;;;;;;;13.18;100.00;98852.92;1672083;85;21490;-64
2021/09/04 04:55:16;;;;;;;15.13;5.97;;;;;;;13.22;100.00;98855.92;1672453;85;20997;-65
2021/09/04 04:57:45;;;;;;;17.40;6.30;;;;;;;13.28;100.00;98856.28;1672164;85;21105;-64
2021/09/04 05:00:13;;;;;;;11.83;6.80;;;;;;;13.36;100.00;98862.28;1672340;85;21424;-65
2021/09/04 05:02:44;;;;;;;12.60;6.37;;;;;;;13.41;100.00;98864.83;1672129;85;20888;-64
2021/09/04 05:05:12;;;;;;;11.40;6.67;;;;;;;13.45;100.00;98867.38;1669715;85;20880;-66
2021/09/04 05:07:40;;;;;;;10.48;6.40;;;;;;;13.51;100.00;98872.53;1690178;84;20958;-65
2021/09/04 05:10:11;;;;;;;10.48;6.60;;;;;;;13.59;100.00;98882.97;1668458;85;20901;-65
2021/09/04 05:12:39;;;;;;;11.18;6.28;;;;;;;13.67;100.00;98880.14;1657143;86;21445;-65
2021/09/04 05:15:07;;;;;;;9.25;6.53;;;;;;;13.74;100.00;98881.32;1657444;86;21494;-64
2021/09/04 05:17:35;;;;;;;9.35;6.22;;;;;;;13.80;100.00;98885.16;1688733;84;20860;-64
2021/09/04 05:20:06;;;;;;;10.68;6.80;;;;;;;13.90;100.00;98891.56;1672697;85;21498;-63
2021/09/04 05:22:34;;;;;;;16.02;6.58;;;;;;;13.99;100.00;98891.34;1657231;85;21098;-64
2021/09/04 05:25:05;;;;;;;11.30;6.80;;;;;;;14.06;100.00;98892.94;1656670;86;21466;-63
2021/09/04 05:27:35;;;;;;;13.32;6.87;;;;;;;14.13;100.00;98883.92;1651833;85;21392;-64
2021/09/04 05:30:05;;;;;;;9.08;6.33;;;;;;;14.22;100.00;98889.03;1650404;85;21452;-64
2021/09/04 05:32:32;;;;;;;10.00;6.47;;;;;;;14.33;100.00;98882.13;1661134;85;20940;-63
2021/09/04 05:35:01;;;;;;;10.43;7.08;;;;;;;14.43;100.00;98883.66;1643788;86;21067;-64
2021/09/04 05:37:29;;;;;;;10.20;7.15;;;;;;;14.53;100.00;98875.88;1661756;85;20896;-64
2021/09/04 05:39:56;;;;;;;12.90;7.08;;;;;;;14.65;100.00;98879.98;1663941;85;21478;-64
2021/09/04 05:42:24;;;;;;;11.60;7.28;;;;;;;14.73;100.00;98886.86;1655469;86;20920;-65
2021/09/04 05:44:53;;;;;;;9.65;6.72;;;;;;;14.82;100.00;98880.43;1666750;85;20864;-64
2021/09/04 05:47:21;;;;;;;7.97;6.70;;;;;;;14.91;100.00;98885.48;1655969;85;21562;-63
2021/09/04 05:49:49;;;;;;;11.97;7.00;;;;;;;14.99;100.00;98882.16;1662885;85;21038;-70
2021/09/04 05:52:19;;;;;;;9.13;6.90;;;;;;;15.08;100.00;98883.22;1678805;85;21442;-64
2021/09/04 05:54:48;;;;;;;11.28;7.33;;;;;;;15.17;100.00;98886.11;1676431;85;21450;-65
2021/09/04 05:57:16;;;;;;;10.45;6.80;;;;;;;15.25;100.00;98877.91;1663269;84;20952;-64
2021/09/04 05:59:43;;;;;;;8.78;6.45;;;;;;;15.33;100.00;98880.75;1655250;85;21868;-63
2021/09/04 06:02:11;;;;;;;8.33;6.17;;;;;;;15.41;100.00;98884.52;1664316;86;20951;-64
2021/09/04 06:04:38;;;;;;;10.75;6.50;;;;;;;15.49;100.00;98876.30;1666211;85;21011;-63
2021/09/04 06:07:07;;;;;;;9.93;6.80;;;;;;;15.60;100.00;98866.25;1683389;84;21415;-62
2021/09/04 06:09:35;;;;;;;8.48;6.83;;;;;;;15.71;100.00;98865.02;1663735;86;20924;-66
2021/09/04 06:12:03;;;;;;;9.45;6.67;;;;;;;15.82;100.00;98854.50;1664009;84;21487;-64
2021/09/04 06:14:32;;;;;;;9.13;6.25;;;;;;;15.92;100.00;98863.47;1657091;86;20927;-64
2021/09/04 06:17:01;;;;;;;10.30;6.50;;;;;;;16.04;100.00;98857.75;1663840;84;21015;-64
2021/09/04 06:19:30;;;;;;;10.08;6.60;;;;;;;16.15;100.00;98865.41;1662012;84;20939;-62
2021/09/04 06:21:59;;;;;;;7.45;6.05;;;;;;;16.27;100.00;98862.80;1668228;84;20924;-63
2021/09/04 06:24:27;;;;;;;9.18;6.42;;;;;;;16.39;100.00;98861.05;1664533;85;21098;-62
2021/09/04 06:26:54;;;;;;;7.58;6.08;;;;;;;16.51;100.00;98861.09;1665415;85;20932;-62
2021/09/04 06:29:24;;;;;;;10.25;5.87;;;;;;;16.63;100.00;98857.56;1663906;85;20916;-62
2021/09/04 06:31:53;;;;;;;9.68;6.65;;;;;;;16.73;100.00;98858.14;1667185;85;21474;-62
2021/09/04 06:34:20;;;;;;;10.45;6.78;;;;;;;16.87;100.00;98863.84;1671050;84;21045;-62
2021/09/04 06:36:48;;;;;;;11.20;6.10;;;;;;;16.99;100.00;98862.52;1671515;85;21098;-61
2021/09/04 06:39:16;;;;;;;12.10;6.72;;;;;;;17.10;100.00;98860.36;1641479;84;21439;-62
2021/09/04 06:41:43;;;;;;;9.05;5.90;;;;;;;17.21;100.00;98862.16;1669313;85;21003;-62
2021/09/04 06:44:11;;;;;;;8.65;5.97;;;;;;;17.31;100.00;98860.89;1670825;85;21009;-63
2021/09/04 06:46:41;;;;;;;10.05;6.20;;;;;;;17.41;100.00;98862.73;1667974;85;21511;-62
2021/09/04 06:49:09;;;;;;;8.48;5.75;;;;;;;17.52;100.00;98866.36;1649565;85;22311;-61
2021/09/04 06:51:38;;;;;;;9.38;5.65;;;;;;;17.62;100.00;98871.27;1659541;85;20933;-61
2021/09/04 06:54:06;;;;;;;9.10;6.67;;;;;;;17.76;100.00;98874.77;1658231;86;20931;-61
2021/09/04 06:56:35;;;;;;;8.63;6.12;;;;;;;17.88;100.00;98876.08;1660506;85;20908;-61
2021/09/04 06:59:02;;;;;;;10.95;6.12;;;;;;;17.95;100.00;98876.23;1677641;85;20880;-61
2021/09/04 07:01:31;;;;;;;7.72;5.45;;;;;;;18.04;100.00;98876.36;1670837;85;21076;-62
2021/09/04 07:03:58;;;;;;;12.33;5.75;;;;;;;18.12;100.00;98877.78;1658699;84;20943;-62
2021/09/04 07:06:25;;;;;;;10.38;5.92;;;;;;;18.20;100.00;98882.34;1666823;85;20916;-62
2021/09/04 07:08:54;;;;;;;9.68;5.83;;;;;;;18.27;100.00;98884.28;1659253;86;20971;-62
2021/09/04 07:11:22;;;;;;;8.83;6.37;;;;;;;18.30;100.00;98886.83;1692894;84;20959;-62
2021/09/04 07:13:50;;;;;;;8.48;5.95;;;;;;;18.34;100.00;98880.42;1661714;86;21767;-61
2021/09/04 07:16:18;;;;;;;9.13;5.70;;;;;;;18.37;100.00;98883.44;1660476;86;20932;-61
2021/09/04 07:18:48;;;;;;;10.48;6.58;;;;;;;18.39;100.00;98886.91;1661938;85;20885;-61
2021/09/04 07:21:16;;;;;;;8.50;6.17;;;;;;;18.37;100.00;98880.77;1645572;86;21449;-61
2021/09/04 07:23:45;;;;;;;14.83;6.20;;;;;;;18.37;100.00;98878.96;1620084;86;21446;-61
2021/09/04 07:26:14;;;;;;;8.83;6.30;;;;;;;18.38;100.00;98883.84;1616964;87;21104;-62
2021/09/04 07:28:43;;;;;;;9.50;6.20;;;;;;;18.41;100.00;98883.70;1601664;88;21029;-62
2021/09/04 07:31:10;;;;;;;9.35;6.10;;;;;;;18.42;100.00;98886.78;1626643;88;21566;-62
2021/09/04 07:33:38;;;;;;;14.80;6.30;;;;;;;18.43;100.00;98895.19;1642736;85;20927;-61
2021/09/04 07:36:08;;;;;;;8.18;6.60;;;;;;;18.43;100.00;98892.52;1644474;86;20916;-62
2021/09/04 07:38:35;;;;;;;8.48;6.22;;;;;;;18.44;100.00;98892.92;1685169;83;21092;-61
2021/09/04 07:41:03;;;;;;;20.45;6.10;;;;;;;18.49;100.00;98894.97;1698957;83;21455;-61
2021/09/04 07:43:33;;;;;;;13.75;6.83;;;;;;;18.56;100.00;98889.77;1691127;84;21474;-63
2021/09/04 07:46:01;;;;;;;11.00;6.22;;;;;;;18.60;100.00;98893.17;1664500;84;21648;-62
2021/09/04 07:48:30;;;;;;;12.65;7.05;;;;;;;18.62;100.00;98891.34;1666357;85;20992;-64
2021/09/04 07:50:59;;;;;;;13.38;7.30;;;;;;;18.68;100.00;98897.75;1670103;84;21068;-63
2021/09/04 07:53:29;;;;;;;23.18;9.33;;;;;;;18.77;100.00;98898.70;1666854;85;21463;-62
2021/09/04 07:55:57;;;;;;;27.37;9.63;;;;;;;18.87;100.00;98894.22;1626183;86;20985;-64
2021/09/04 07:58:26;;;;;;;20.65;8.93;;;;;;;18.97;100.00;98897.38;1654651;86;21459;-65
2021/09/04 08:00:55;;;;;;;21.00;8.98;;;;;;;19.03;100.00;98887.76;1654725;86;20941;-65
2021/09/04 08:03:23;;;;;;;21.07;8.55;;;;;;;19.11;100.00;98889.62;1668396;85;21074;-65
2021/09/04 08:05:52;;;;;;;14.65;7.03;;;;;;;19.20;100.00;98896.36;1675138;84;20928;-68
2021/09/04 08:08:21;;;;;;;12.75;7.25;;;;;;;19.28;100.00;98885.31;1681454;84;20973;-68
2021/09/04 08:10:49;;;;;;;14.40;6.97;;;;;;;19.36;100.00;98885.36;1673956;84;21305;-68
2021/09/04 08:13:19;;;;;;;11.35;6.85;;;;;;;19.45;100.00;98886.30;1669991;86;20885;-68
2021/09/04 08:15:48;;;;;;;10.53;7.03;;;;;;;19.58;100.00;98891.12;1628905;86;21158;-66
2021/09/04 08:18:17;;;;;;;10.95;7.22;;;;;;;19.71;100.00;98886.92;1611500;86;21482;-67
2021/09/04 08:20:45;;;;;;;11.05;6.22;;;;;;;19.83;100.00;98890.82;1605026;88;20983;-67
2021/09/04 08:23:13;;;;;;;9.98;6.45;;;;;;;19.93;100.00;98876.09;1606580;88;20927;-65
2021/09/04 08:25:41;;;;;;;9.23;6.97;;;;;;;20.03;100.00;98876.90;1619462;86;20976;-67
2021/09/04 08:28:09;;;;;;;10.32;6.70;;;;;;;20.15;100.00;98878.11;1646725;86;21771;-68
2021/09/04 08:30:36;;;;;;;8.10;6.15;;;;;;;20.26;100.00;98880.25;1675024;84;20959;-69
2021/09/04 08:33:06;;;;;;;8.83;6.30;;;;;;;20.37;100.00;98872.11;1657661;86;21481;-64
2021/09/04 08:35:38;;;;;;;17.10;6.87;;;;;;;20.51;100.00;98874.59;1655521;85;20917;-64
2021/09/04 08:38:09;;;;;;;9.95;6.40;;;;;;;20.63;100.00;98873.49;1654088;85;21033;-66
2021/09/04 08:40:41;;;;;;;12.28;6.42;;;;;;;20.76;100.00;98875.06;1657782;84;21938;-66
2021/09/04 08:43:10;;;;;;;9.38;5.53;;;;;;;20.84;100.00;98874.70;1667857;85;20995;-65
2021/09/04 08:45:39;;;;;;;7.97;5.62;;;;;;;20.85;100.00;98869.73;1660815;84;21516;-66
2021/09/04 08:48:09;;;;;;;11.28;6.37;;;;;;;20.87;100.00;98867.36;1646290;85;20956;-67
2021/09/04 08:50:37;;;;;;;7.75;5.87;;;;;;;20.87;100.00;98883.45;1627072;86;21538;-66
2021/09/04 08:53:08;;;;;;;8.25;5.65;;;;;;;20.80;100.00;98875.77;1683804;85;21865;-66
2021/09/04 08:55:40;;;;;;;9.50;6.00;;;;;;;20.71;100.00;98876.64;1667161;84;21502;-64
2021/09/04 08:58:08;;;;;;;10.85;6.40;;;;;;;20.64;100.00;98875.23;1652431;85;21025;-65
2021/09/04 09:00:57;;;;;;;8.88;6.10;;;;;;;20.65;100.00;98880.11;1645101;86;20919;-66
2021/09/04 09:03:28;;;;;;;7.45;5.72;;;;;;;20.71;100.00;98863.72;1672496;85;20916;-66
2021/09/04 09:05:58;;;;;;;7.80;5.75;;;;;;;20.79;100.00;98865.52;1664867;85;21198;-66
2021/09/04 09:08:30;;;;;;;8.23;6.08;;;;;;;20.90;100.00;98866.33;1642535;86;20951;-66
2021/09/04 09:10:59;;;;;;;10.32;6.03;;;;;;;21.03;100.00;98866.08;1647912;85;20864;-65
2021/09/04 09:13:28;;;;;;;8.68;6.10;;;;;;;21.17;100.00;98867.55;1660483;86;21023;-65
2021/09/04 09:15:56;;;;;;;7.60;5.55;;;;;;;21.35;100.00;98864.41;1666836;85;20912;-65
2021/09/04 09:18:27;;;;;;;8.25;6.20;;;;;;;21.52;100.00;98867.51;1658702;85;21348;-65
2021/09/04 09:21:00;;;;;;;10.25;6.72;;;;;;;21.58;100.00;98873.41;1669670;85;20936;-71
2021/09/04 09:23:28;;;;;;;14.30;7.03;;;;;;;21.56;100.00;98873.09;1670611;85;20994;-67
2021/09/04 09:26:09;;;;;;;10.40;7.10;;;;;;;21.51;100.00;98873.35;1668194;85;20960;-66
2021/09/04 09:28:39;;;;;;;8.48;6.35;;;;;;;21.49;100.00;98875.73;1645477;87;21475;-68
2021/09/04 09:31:08;;;;;;;9.23;6.70;;;;;;;21.53;100.00;98878.63;1645310;85;21765;-68
2021/09/04 09:33:36;;;;;;;7.62;6.15;;;;;;;21.54;100.00;98873.19;1633515;87;20884;-67
2021/09/04 09:36:04;;;;;;;8.05;6.00;;;;;;;21.52;100.00;98875.09;1660433;86;20891;-67
2021/09/04 09:38:33;;;;;;;10.45;6.58;;;;;;;21.50;100.00;98879.67;1661464;85;20944;-68
2021/09/04 09:41:03;;;;;;;11.53;6.53;;;;;;;21.53;100.00;98879.50;1658405;85;20919;-68
2021/09/04 09:43:36;;;;;;;12.35;7.33;;;;;;;21.63;100.00;98877.17;1658738;85;21064;-67
2021/09/04 09:46:04;;;;;;;10.93;5.87;;;;;;;21.78;100.00;98867.43;1662646;85;20959;-68
2021/09/04 09:48:33;;;;;;;9.10;5.95;;;;;;;21.89;100.00;98877.95;1662182;85;20960;-69
2021/09/04 09:51:04;;;;;;;9.45;6.12;;;;;;;21.95;100.00;98882.98;1672387;85;20903;-68
2021/09/04 09:53:33;;;;;;;9.30;6.07;;;;;;;21.88;100.00;98889.65;1659717;85;20923;-68
2021/09/04 09:56:01;;;;;;;8.20;5.70;;;;;;;21.88;100.00;98889.65;1657160;86;21743;-68
2021/09/04 09:58:29;;;;;;;12.15;6.28;;;;;;;21.82;100.00;98884.62;1641566;86;20956;-67
2021/09/04 10:00:58;;;;;;;8.03;6.20;;;;;;;21.72;100.00;98885.19;1639856;85;20912;-68
2021/09/04 10:03:29;;;;;;;7.72;6.15;;;;;;;21.61;100.00;98888.47;1661257;85;21003;-68
2021/09/04 10:05:58;;;;;;;9.68;6.30;;;;;;;21.56;100.00;98886.52;1662713;85;20985;-68
2021/09/04 10:08:25;;;;;;;9.73;6.67;;;;;;;21.51;100.00;98887.25;1661859;85;20999;-68
2021/09/04 10:10:54;;;;;;;9.10;5.90;;;;;;;21.47;100.00;98895.08;1660613;85;20936;-69
2021/09/04 10:13:22;;;;;;;8.20;6.17;;;;;;;21.41;100.00;98892.72;1615507;85;21003;-68
2021/09/04 10:15:51;;;;;;;11.35;6.15;;;;;;;21.30;100.00;98890.15;1664688;85;20959;-68
2021/09/04 10:18:24;;;;;;;9.30;5.80;;;;;;;21.22;100.00;98897.67;1651646;85;20980;-68
2021/09/04 10:21:10;;;;;;;7.08;5.92;;;;;;;21.15;100.00;98896.27;1658117;85;21760;-68
2021/09/04 10:23:41;;;;;;;7.12;5.67;;;;;;;21.03;100.00;98904.48;1598155;86;20952;-68
2021/09/04 10:26:28;;;;;;;7.37;5.97;;;;;;;20.93;100.00;98906.39;1661428;85;20945;-68
2021/09/04 10:29:19;;;;;;;7.75;6.05;;;;;;;20.83;100.00;98906.48;1628623;87;20915;-68
2021/09/04 10:32:04;;;;;;;6.97;5.58;;;;;;;20.74;100.00;98899.27;1665440;85;20963;-67
2021/09/04 10:34:41;;;;;;;8.83;5.85;;;;;;;20.80;100.00;98910.15;1663385;84;21066;-69
2021/09/04 10:37:17;;;;;;;10.18;6.15;;;;;;;20.91;100.00;98904.27;1664177;85;21423;-68
2021/09/04 10:40:07;;;;;;;9.58;6.08;;;;;;;21.01;100.00;98913.09;1670277;85;20964;-69
2021/09/04 10:42:44;;;;;;;8.43;5.90;;;;;;;21.13;100.00;98923.64;1661192;86;20928;-70
2021/09/04 10:45:19;;;;;;;8.13;5.83;;;;;;;21.25;100.00;98923.50;1661257;86;20972;-69
2021/09/04 10:47:57;;;;;;;9.50;5.70;;;;;;;21.32;100.00;98927.63;1671326;84;21142;-68
2021/09/04 10:50:28;;;;;;;9.53;5.80;;;;;;;21.33;100.00;98921.31;1628992;87;20960;-69
2021/09/04 10:53:07;;;;;;;8.83;5.65;;;;;;;21.40;100.00;98927.22;1686373;84;20946;-68
2021/09/04 10:55:42;;;;;;;8.18;5.75;;;;;;;21.54;100.00;98927.34;1694117;84;21498;-69
2021/09/04 10:58:13;;;;;;;7.35;5.80;;;;;;;21.69;100.00;98922.47;1694651;84;20923;-68
2021/09/04 11:00:49;;;;;;;9.65;5.72;;;;;;;21.89;100.00;98929.45;1694237;84;21449;-69
2021/09/04 11:03:20;;;;;;;11.63;5.95;;;;;;;22.07;100.00;98927.59;1694412;84;20981;-68
2021/09/04 11:06:06;;;;;;;8.15;5.10;;;;;;;22.25;100.00;98915.83;1666051;86;21026;-68
2021/09/04 11:08:38;;;;;;;9.25;5.47;;;;;;;22.42;100.00;98914.38;1666079;86;20955;-68
2021/09/04 11:11:16;;;;;;;8.85;5.45;;;;;;;22.51;100.00;98912.49;1666442;86;20943;-67
2021/09/04 11:13:51;;;;;;;7.15;5.15;;;;;;;22.59;98.48;98912.04;1666376;86;21430;-68
2021/09/04 11:16:44;;;;;;;6.67;5.30;;;;;;;22.70;97.78;98917.65;1666148;86;20907;-69
2021/09/04 11:19:31;;;;;;;9.43;5.25;;;;;;;22.81;95.44;98912.56;1666569;86;20927;-68
2021/09/04 11:22:15;;;;;;;6.00;5.30;;;;;;;22.94;94.10;98915.38;1666324;86;21462;-69
2021/09/04 11:24:46;;;;;;;13.68;5.80;;;;;;;23.02;91.81;98911.75;1666460;86;20951;-66
2021/09/04 11:27:19;;;;;;;8.68;5.97;;;;;;;23.03;89.51;98913.48;1670428;84;20974;-67
2021/09/04 11:29:51;;;;;;;8.23;5.40;;;;;;;23.04;90.14;98914.34;1695692;84;20923;-67
2021/09/04 11:32:22;;;;;;;8.15;6.53;;;;;;;23.06;91.23;98910.61;1692325;84;21446;-67
2021/09/04 11:35:02;;;;;;;11.50;6.40;;;;;;;23.05;89.31;98909.35;1691913;84;21749;-68